sensor_id;sensor_type;location;lat;lon;timestamp;temperature;humidity
72646;DHT22;60687;53.876;10.674;2023-12-20T00:05:13;6.60;99.90
72646;DHT22;60687;53.876;10.674;2023-12-20T00:15:16;6.50;99.90
72646;DHT22;60687;53.876;10.674;2023-12-20T00:25:21;6.40;99.90
72646;DHT22;60687;53.876;10.674;2023-12-20T00:35:26;6.30;99.90
72646;DHT22;60687;53.876;10.674;2023-12-20T00:45:29;6.30;99.90
72646;DHT22;60687;53.876;10.674;2023-12-20T00:55:32;6.20;99.90
72646;DHT22;60687;53.876;10.674;2023-12-20T01:05:37;6.20;99.90
72646;DHT22;60687;53.876;10.674;2023-12-20T01:15:39;6.10;99.90
72646;DHT22;60687;53.876;10.674;2023-12-20T01:25:43;6.10;99.90
72646;DHT22;60687;53.876;10.674;2023-12-20T01:35:45;6.10;99.90
72646;DHT22;60687;53.876;10.674;2023-12-20T01:45:49;6.10;99.90
72646;DHT22;60687;53.876;10.674;2023-12-20T01:55:55;6.00;99.90
72646;DHT22;60687;53.876;10.674;2023-12-20T02:05:59;6.00;99.90
72646;DHT22;60687;53.876;10.674;2023-12-20T02:16:04;6.00;99.90
72646;DHT22;60687;53.876;10.674;2023-12-20T02:26:09;6.00;99.90
72646;DHT22;60687;53.876;10.674;2023-12-20T02:36:17;6.00;99.90
72646;DHT22;60687;53.876;10.674;2023-12-20T02:46:23;5.90;99.90
72646;DHT22;60687;53.876;10.674;2023-12-20T02:56:25;6.00;99.90
72646;DHT22;60687;53.876;10.674;2023-12-20T03:06:30;6.00;99.90
72646;DHT22;60687;53.876;10.674;2023-12-20T03:16:33;6.00;99.90
72646;DHT22;60687;53.876;10.674;2023-12-20T03:26:38;6.00;99.90
72646;DHT22;60687;53.876;10.674;2023-12-20T03:36:41;6.00;99.90
72646;DHT22;60687;53.876;10.674;2023-12-20T03:46:45;6.10;99.90
72646;DHT22;60687;53.876;10.674;2023-12-20T03:56:49;6.10;99.90
72646;DHT22;60687;53.876;10.674;2023-12-20T04:06:54;6.10;99.90
72646;DHT22;60687;53.876;10.674;2023-12-20T04:16:56;6.10;99.90
72646;DHT22;60687;53.876;10.674;2023-12-20T04:27:01;6.10;99.90
72646;DHT22;60687;53.876;10.674;2023-12-20T04:37:05;6.10;99.90
72646;DHT22;60687;53.876;10.674;2023-12-20T04:47:10;6.10;99.90
72646;DHT22;60687;53.876;10.674;2023-12-20T04:57:13;6.10;99.90
72646;DHT22;60687;53.876;10.674;2023-12-20T05:07:17;6.10;99.90
72646;DHT22;60687;53.876;10.674;2023-12-20T05:17:19;6.10;99.90
72646;DHT22;60687;53.876;10.674;2023-12-20T05:27:23;6.20;99.90
72646;DHT22;60687;53.876;10.674;2023-12-20T05:37:27;6.20;99.90
72646;DHT22;60687;53.876;10.674;2023-12-20T05:47:31;6.20;99.90
72646;DHT22;60687;53.876;10.674;2023-12-20T05:57:35;6.20;99.90
72646;DHT22;60687;53.876;10.674;2023-12-20T06:07:40;6.20;99.90
72646;DHT22;60687;53.876;10.674;2023-12-20T06:17:43;6.30;99.90
72646;DHT22;60687;53.876;10.674;2023-12-20T06:27:50;6.20;99.90
72646;DHT22;60687;53.876;10.674;2023-12-20T06:37:52;6.20;99.90
72646;DHT22;60687;53.876;10.674;2023-12-20T06:47:56;6.20;99.90
72646;DHT22;60687;53.876;10.674;2023-12-20T06:57:59;6.30;99.90
72646;DHT22;60687;53.876;10.674;2023-12-20T07:08:04;6.20;99.90
72646;DHT22;60687;53.876;10.674;2023-12-20T07:18:07;6.20;99.90
72646;DHT22;60687;53.876;10.674;2023-12-20T07:28:11;6.20;99.90
72646;DHT22;60687;53.876;10.674;2023-12-20T07:38:14;6.10;99.90
72646;DHT22;60687;53.876;10.674;2023-12-20T07:48:18;6.20;99.90
72646;DHT22;60687;53.876;10.674;2023-12-20T07:58:21;6.20;99.90
72646;DHT22;60687;53.876;10.674;2023-12-20T08:08:25;6.20;99.90
72646;DHT22;60687;53.876;10.674;2023-12-20T08:18:30;6.30;99.90
72646;DHT22;60687;53.876;10.674;2023-12-20T08:28:36;6.30;99.90
72646;DHT22;60687;53.876;10.674;2023-12-20T08:38:39;6.30;99.90
72646;DHT22;60687;53.876;10.674;2023-12-20T08:48:43;6.30;99.90
72646;DHT22;60687;53.876;10.674;2023-12-20T08:58:46;6.30;99.90
72646;DHT22;60687;53.876;10.674;2023-12-20T09:08:51;6.40;99.90
72646;DHT22;60687;53.876;10.674;2023-12-20T09:18:53;6.50;99.90
72646;DHT22;60687;53.876;10.674;2023-12-20T09:28:57;6.50;99.90
72646;DHT22;60687;53.876;10.674;2023-12-20T09:39:00;6.50;99.90
72646;DHT22;60687;53.876;10.674;2023-12-20T09:49:05;6.40;99.90
72646;DHT22;60687;53.876;10.674;2023-12-20T09:59:08;6.40;99.90
72646;DHT22;60687;53.876;10.674;2023-12-20T10:09:12;6.30;99.90
72646;DHT22;60687;53.876;10.674;2023-12-20T10:19:16;6.20;99.90
72646;DHT22;60687;53.876;10.674;2023-12-20T10:29:21;6.10;99.90
72646;DHT22;60687;53.876;10.674;2023-12-20T10:39:27;6.00;99.90
72646;DHT22;60687;53.876;10.674;2023-12-20T10:49:36;5.90;99.90
72646;DHT22;60687;53.876;10.674;2023-12-20T10:59:40;5.90;99.90
72646;DHT22;60687;53.876;10.674;2023-12-20T11:09:49;5.90;99.90
72646;DHT22;60687;53.876;10.674;2023-12-20T11:20:08;5.90;99.90
72646;DHT22;60687;53.876;10.674;2023-12-20T11:30:15;6.00;99.90
72646;DHT22;60687;53.876;10.674;2023-12-20T11:40:23;5.90;99.90
72646;DHT22;60687;53.876;10.674;2023-12-20T11:50:29;5.90;99.90
72646;DHT22;60687;53.876;10.674;2023-12-20T12:00:35;6.00;99.90
72646;DHT22;60687;53.876;10.674;2023-12-20T12:10:40;6.00;99.90
72646;DHT22;60687;53.876;10.674;2023-12-20T12:20:43;6.00;99.90
72646;DHT22;60687;53.876;10.674;2023-12-20T12:30:57;6.10;99.90
72646;DHT22;60687;53.876;10.674;2023-12-20T12:41:01;6.10;99.90
72646;DHT22;60687;53.876;10.674;2023-12-20T12:51:07;6.20;99.90
72646;DHT22;60687;53.876;10.674;2023-12-20T13:01:15;6.30;99.90
72646;DHT22;60687;53.876;10.674;2023-12-20T13:11:19;6.30;99.90
72646;DHT22;60687;53.876;10.674;2023-12-20T13:21:23;6.30;99.90
72646;DHT22;60687;53.876;10.674;2023-12-20T13:31:31;6.20;99.90
72646;DHT22;60687;53.876;10.674;2023-12-20T13:41:34;6.20;99.90
72646;DHT22;60687;53.876;10.674;2023-12-20T13:51:39;6.20;99.90
72646;DHT22;60687;53.876;10.674;2023-12-20T14:01:45;6.20;99.90
72646;DHT22;60687;53.876;10.674;2023-12-20T14:11:53;6.20;99.90
72646;DHT22;60687;53.876;10.674;2023-12-20T14:21:56;6.30;99.90
72646;DHT22;60687;53.876;10.674;2023-12-20T14:32:07;6.30;99.90
72646;DHT22;60687;53.876;10.674;2023-12-20T14:42:17;6.30;99.90
72646;DHT22;60687;53.876;10.674;2023-12-20T14:52:21;6.30;99.90
72646;DHT22;60687;53.876;10.674;2023-12-20T15:02:24;6.20;99.40
72646;DHT22;60687;53.876;10.674;2023-12-20T15:12:32;6.20;98.00
72646;DHT22;60687;53.876;10.674;2023-12-20T15:22:37;6.10;97.40
72646;DHT22;60687;53.876;10.674;2023-12-20T15:32:42;6.00;98.50
72646;DHT22;60687;53.876;10.674;2023-12-20T15:42:47;6.00;98.50
72646;DHT22;60687;53.876;10.674;2023-12-20T15:52:52;6.00;99.10
72646;DHT22;60687;53.876;10.674;2023-12-20T16:02:57;5.90;99.30
72646;DHT22;60687;53.876;10.674;2023-12-20T16:13:04;6.00;99.30
72646;DHT22;60687;53.876;10.674;2023-12-20T16:23:10;5.90;99.80
72646;DHT22;60687;53.876;10.674;2023-12-20T16:33:15;5.80;99.60
72646;DHT22;60687;53.876;10.674;2023-12-20T16:43:19;5.90;99.90
72646;DHT22;60687;53.876;10.674;2023-12-20T16:53:38;5.80;99.90
72646;DHT22;60687;53.876;10.674;2023-12-20T17:03:41;5.80;99.90
72646;DHT22;60687;53.876;10.674;2023-12-20T17:13:45;5.80;99.90
72646;DHT22;60687;53.876;10.674;2023-12-20T17:23:51;5.80;99.90
72646;DHT22;60687;53.876;10.674;2023-12-20T17:33:57;5.70;99.90
72646;DHT22;60687;53.876;10.674;2023-12-20T17:44:00;5.70;99.90
72646;DHT22;60687;53.876;10.674;2023-12-20T17:54:06;5.70;99.90
72646;DHT22;60687;53.876;10.674;2023-12-20T18:04:12;5.70;99.90
72646;DHT22;60687;53.876;10.674;2023-12-20T18:14:22;5.60;99.90
72646;DHT22;60687;53.876;10.674;2023-12-20T18:24:26;5.60;99.90
72646;DHT22;60687;53.876;10.674;2023-12-20T18:34:35;5.60;99.90
72646;DHT22;60687;53.876;10.674;2023-12-20T18:44:42;5.60;99.90
72646;DHT22;60687;53.876;10.674;2023-12-20T18:54:50;5.50;99.90
72646;DHT22;60687;53.876;10.674;2023-12-20T19:04:54;5.50;99.90
72646;DHT22;60687;53.876;10.674;2023-12-20T19:15:05;5.50;99.90
72646;DHT22;60687;53.876;10.674;2023-12-20T19:25:21;5.50;99.90
72646;DHT22;60687;53.876;10.674;2023-12-20T19:35:25;5.50;99.90
72646;DHT22;60687;53.876;10.674;2023-12-20T19:45:29;5.50;99.90
72646;DHT22;60687;53.876;10.674;2023-12-20T19:55:36;5.50;99.90
72646;DHT22;60687;53.876;10.674;2023-12-20T20:05:39;5.50;99.90
72646;DHT22;60687;53.876;10.674;2023-12-20T20:15:47;5.50;99.90
72646;DHT22;60687;53.876;10.674;2023-12-20T20:25:54;5.50;99.90
72646;DHT22;60687;53.876;10.674;2023-12-20T20:35:59;5.60;99.90
72646;DHT22;60687;53.876;10.674;2023-12-20T20:46:05;5.60;99.90
72646;DHT22;60687;53.876;10.674;2023-12-20T20:56:24;5.60;99.90
72646;DHT22;60687;53.876;10.674;2023-12-20T21:06:29;5.60;99.90
72646;DHT22;60687;53.876;10.674;2023-12-20T21:16:37;5.60;99.90
72646;DHT22;60687;53.876;10.674;2023-12-20T21:26:41;5.70;99.90
72646;DHT22;60687;53.876;10.674;2023-12-20T21:36:47;5.70;99.90
72646;DHT22;60687;53.876;10.674;2023-12-20T21:46:57;5.70;99.90
72646;DHT22;60687;53.876;10.674;2023-12-20T21:57:12;5.70;99.90
72646;DHT22;60687;53.876;10.674;2023-12-20T22:07:16;5.70;99.90
72646;DHT22;60687;53.876;10.674;2023-12-20T22:17:20;5.70;99.90
72646;DHT22;60687;53.876;10.674;2023-12-20T22:27:27;5.70;99.90
72646;DHT22;60687;53.876;10.674;2023-12-20T22:37:31;5.80;99.90
72646;DHT22;60687;53.876;10.674;2023-12-20T22:47:33;5.80;99.90
72646;DHT22;60687;53.876;10.674;2023-12-20T22:57:39;5.80;99.90
72646;DHT22;60687;53.876;10.674;2023-12-20T23:18:30;5.80;99.90
72646;DHT22;60687;53.876;10.674;2023-12-20T23:28:39;5.80;99.90
72646;DHT22;60687;53.876;10.674;2023-12-20T23:38:45;5.80;99.90
72646;DHT22;60687;53.876;10.674;2023-12-20T23:48:50;5.90;99.90
72646;DHT22;60687;53.876;10.674;2023-12-20T23:58:54;5.90;99.90
